createdAt,value
2022-09-07T00:00:25.269Z,38.07
2022-09-07T00:01:27.143Z,38.06
2022-09-07T00:02:29.060Z,38.12
2022-09-07T00:03:31.011Z,38.13
2022-09-07T00:04:32.984Z,38.16
2022-09-07T00:05:35.906Z,38.20
2022-09-07T00:06:37.877Z,38.20
2022-09-07T00:07:39.754Z,38.22
2022-09-07T00:08:41.640Z,38.26
2022-09-07T00:09:43.511Z,38.27
2022-09-07T00:10:45.500Z,38.30
2022-09-07T00:11:47.352Z,38.32
2022-09-07T00:12:49.280Z,38.34
2022-09-07T00:13:51.262Z,38.35
2022-09-07T00:14:53.119Z,38.39
2022-09-07T00:15:55.019Z,38.41
2022-09-07T00:16:58.013Z,38.42
2022-09-07T00:17:59.834Z,38.44
2022-09-07T00:19:01.723Z,38.45
2022-09-07T00:20:03.693Z,38.48
2022-09-07T00:21:05.652Z,38.50
2022-09-07T00:22:08.017Z,38.50
2022-09-07T00:23:09.892Z,38.54
2022-09-07T00:24:11.817Z,38.56
2022-09-07T00:25:13.968Z,38.59
2022-09-07T00:26:16.235Z,38.63
2022-09-07T00:27:18.082Z,38.64
2022-09-07T00:28:19.950Z,38.66
2022-09-07T00:29:21.916Z,38.65
2022-09-07T00:30:25.596Z,38.69
2022-09-07T00:31:27.490Z,38.71
2022-09-07T00:32:29.354Z,38.71
2022-09-07T00:33:31.209Z,38.73
2022-09-07T00:34:33.109Z,38.75
2022-09-07T00:35:35.168Z,38.77
2022-09-07T00:36:37.118Z,38.80
2022-09-07T00:37:41.452Z,38.80
2022-09-07T00:38:43.657Z,38.81
2022-09-07T00:39:45.586Z,38.82
2022-09-07T00:40:47.519Z,38.86
2022-09-07T00:41:49.381Z,38.86
2022-09-07T00:42:51.367Z,38.88
2022-09-07T00:43:53.234Z,38.89
2022-09-07T00:44:55.226Z,38.93
2022-09-07T00:45:57.079Z,38.94
2022-09-07T00:46:59.074Z,38.96
2022-09-07T00:48:00.901Z,38.98
2022-09-07T00:49:02.752Z,38.97
2022-09-07T00:50:04.754Z,39.00
2022-09-07T00:51:06.587Z,39.03
2022-09-07T00:52:08.423Z,39.04
2022-09-07T00:53:10.266Z,39.05
2022-09-07T00:54:12.095Z,39.07
2022-09-07T00:55:13.971Z,39.13
2022-09-07T00:56:16.823Z,39.13
2022-09-07T00:57:18.644Z,39.12
2022-09-07T00:58:20.497Z,39.12
2022-09-07T00:59:22.351Z,39.15
2022-09-07T01:00:25.121Z,39.15
2022-09-07T01:01:27.135Z,39.17
2022-09-07T01:02:29.152Z,39.18
2022-09-07T01:03:31.051Z,39.18
2022-09-07T01:04:32.885Z,39.21
2022-09-07T01:05:34.764Z,39.23
2022-09-07T01:06:36.725Z,39.26
2022-09-07T01:07:38.555Z,39.27
2022-09-07T01:08:40.385Z,39.29
2022-09-07T01:09:42.231Z,39.30
2022-09-07T01:10:44.202Z,39.31
2022-09-07T01:11:46.054Z,39.35
2022-09-07T01:12:47.902Z,39.36
2022-09-07T01:13:49.762Z,39.38
2022-09-07T01:14:51.597Z,39.37
2022-09-07T01:15:53.742Z,39.40
2022-09-07T01:16:55.737Z,39.43
2022-09-07T01:17:57.583Z,39.42
2022-09-07T01:18:59.445Z,39.44
2022-09-07T01:20:01.275Z,39.44
2022-09-07T01:21:03.148Z,39.46
2022-09-07T01:22:04.992Z,39.48
2022-09-07T01:23:06.848Z,39.50
2022-09-07T01:24:08.684Z,39.52
2022-09-07T01:25:10.525Z,39.53
2022-09-07T01:26:14.137Z,39.54
2022-09-07T01:27:15.992Z,39.56
2022-09-07T01:28:17.824Z,39.54
2022-09-07T01:29:19.657Z,39.57
2022-09-07T01:30:21.603Z,39.62
2022-09-07T01:31:23.718Z,39.59
2022-09-07T01:32:25.571Z,39.61
2022-09-07T01:33:27.428Z,39.65
2022-09-07T01:34:29.273Z,39.65
2022-09-07T01:35:31.115Z,39.66
2022-09-07T01:36:33.077Z,39.66
2022-09-07T01:37:34.920Z,39.68
2022-09-07T01:38:36.750Z,39.68
2022-09-07T01:39:38.622Z,39.71
2022-09-07T01:40:40.540Z,39.71
2022-09-07T01:41:42.424Z,39.74
2022-09-07T01:42:44.267Z,39.75
2022-09-07T01:43:46.105Z,39.76
2022-09-07T01:44:47.955Z,39.79
2022-09-07T01:45:49.789Z,39.79
2022-09-07T01:46:52.248Z,39.80
2022-09-07T01:47:53.993Z,39.81
2022-09-07T01:48:55.822Z,39.82
2022-09-07T01:49:57.670Z,39.82
2022-09-07T01:50:59.639Z,39.85
2022-09-07T01:52:01.486Z,39.85
2022-09-07T01:53:03.320Z,39.88
2022-09-07T01:54:05.054Z,39.90
2022-09-07T01:55:06.902Z,39.93
2022-09-07T01:56:09.548Z,39.94
2022-09-07T01:57:11.438Z,39.96
2022-09-07T01:58:13.268Z,39.98
2022-09-07T01:59:15.121Z,39.96
2022-09-07T02:00:17.355Z,40.00
2022-09-07T02:01:19.272Z,40.02
2022-09-07T02:02:21.283Z,40.01
2022-09-07T02:03:23.111Z,40.02
2022-09-07T02:04:24.956Z,40.03
2022-09-07T02:05:26.790Z,40.06
2022-09-07T02:06:28.943Z,40.07
2022-09-07T02:07:30.830Z,40.08
2022-09-07T02:08:32.676Z,40.10
2022-09-07T02:09:34.548Z,40.09
2022-09-07T02:10:36.517Z,40.11
2022-09-07T02:11:40.443Z,40.14
2022-09-07T02:12:42.336Z,40.14
2022-09-07T02:13:44.206Z,40.16
2022-09-07T02:14:50.586Z,40.16
2022-09-07T02:15:49.817Z,40.18
2022-09-07T02:16:51.739Z,40.18
2022-09-07T02:17:53.870Z,40.21
2022-09-07T02:18:55.719Z,40.21
2022-09-07T02:19:57.587Z,40.22
2022-09-07T02:20:59.565Z,40.24
2022-09-07T02:22:01.430Z,40.26
2022-09-07T02:23:03.329Z,40.25
2022-09-07T02:24:05.193Z,40.27
2022-09-07T02:25:07.057Z,40.27
2022-09-07T02:26:09.184Z,40.29
2022-09-07T02:27:11.060Z,40.29
2022-09-07T02:28:12.969Z,40.30
2022-09-07T02:29:14.838Z,40.32
2022-09-07T02:30:17.124Z,40.31
2022-09-07T02:31:19.032Z,40.34
2022-09-07T02:32:20.884Z,40.35
2022-09-07T02:33:22.912Z,40.35
2022-09-07T02:34:24.779Z,40.36
2022-09-07T02:35:26.657Z,40.38
2022-09-07T02:36:28.633Z,40.41
2022-09-07T02:37:30.511Z,40.41
2022-09-07T02:38:32.454Z,40.42
2022-09-07T02:39:34.391Z,40.42
2022-09-07T02:40:36.373Z,40.43
2022-09-07T02:41:38.237Z,40.45
2022-09-07T02:42:40.132Z,40.46
2022-09-07T02:43:42.043Z,40.47
2022-09-07T02:44:43.907Z,40.50
2022-09-07T02:45:45.941Z,40.52
2022-09-07T02:46:47.963Z,40.52
2022-09-07T02:47:49.817Z,40.53
2022-09-07T02:48:51.794Z,40.55
2022-09-07T02:49:53.673Z,40.56
2022-09-07T02:50:55.647Z,40.57
2022-09-07T02:51:57.524Z,40.57
2022-09-07T02:52:59.390Z,40.58
2022-09-07T02:54:01.293Z,40.60
2022-09-07T02:55:03.176Z,40.62
2022-09-07T02:56:05.136Z,40.62
2022-09-07T02:57:07.014Z,40.61
2022-09-07T02:58:08.874Z,40.63
2022-09-07T02:59:10.775Z,40.65
2022-09-07T03:00:14.379Z,40.64
2022-09-07T03:01:16.295Z,40.67
2022-09-07T03:02:18.271Z,40.67
2022-09-07T03:03:20.058Z,40.71
2022-09-07T03:04:22.049Z,40.73
2022-09-07T03:05:23.916Z,40.73
2022-09-07T03:06:26.192Z,40.76
2022-09-07T03:07:28.060Z,40.79
2022-09-07T03:08:30.053Z,40.79
2022-09-07T03:09:32.072Z,40.82
2022-09-07T03:10:34.026Z,40.82
2022-09-07T03:11:35.906Z,40.83
2022-09-07T03:12:37.771Z,40.86
2022-09-07T03:13:39.648Z,40.88
2022-09-07T03:14:41.575Z,40.88
2022-09-07T03:15:43.522Z,40.89
2022-09-07T03:16:45.410Z,40.90
2022-09-07T03:17:47.258Z,40.91
2022-09-07T03:18:49.141Z,40.92
2022-09-07T03:19:51.063Z,40.94
2022-09-07T03:20:53.036Z,40.96
2022-09-07T03:21:54.948Z,40.96
2022-09-07T03:22:56.813Z,40.98
2022-09-07T03:23:58.667Z,40.99
2022-09-07T03:25:00.574Z,41.00
2022-09-07T03:26:02.638Z,41.02
2022-09-07T03:27:04.509Z,41.03
2022-09-07T03:28:06.373Z,41.05
2022-09-07T03:29:08.239Z,41.06
2022-09-07T03:30:11.057Z,41.06
2022-09-07T03:31:13.012Z,41.09
2022-09-07T03:32:15.007Z,41.08
2022-09-07T03:33:16.879Z,41.11
2022-09-07T03:34:18.758Z,41.11
2022-09-07T03:35:20.736Z,41.15
2022-09-07T03:36:23.308Z,41.15
2022-09-07T03:37:25.179Z,41.18
2022-09-07T03:38:27.103Z,41.18
2022-09-07T03:39:29.080Z,41.21
2022-09-07T03:40:32.064Z,41.21
2022-09-07T03:41:34.357Z,41.22
2022-09-07T03:42:36.223Z,41.25
2022-09-07T03:43:38.103Z,41.27
2022-09-07T03:44:39.971Z,41.28
2022-09-07T03:45:41.898Z,41.27
2022-09-07T03:46:43.835Z,41.29
2022-09-07T03:47:45.688Z,41.32
2022-09-07T03:48:47.552Z,41.34
2022-09-07T03:49:49.435Z,41.33
2022-09-07T03:50:51.660Z,41.33
2022-09-07T03:51:53.642Z,41.35
2022-09-07T03:52:55.520Z,41.38
2022-09-07T03:53:57.388Z,41.37
2022-09-07T03:54:59.272Z,41.39
2022-09-07T03:56:01.171Z,41.42
2022-09-07T03:57:03.123Z,41.43
2022-09-07T03:58:04.997Z,41.44
2022-09-07T03:59:06.876Z,41.47
2022-09-07T04:00:09.152Z,41.48
2022-09-07T04:01:11.074Z,41.50
2022-09-07T04:02:12.963Z,41.52
2022-09-07T04:03:14.923Z,41.54
2022-09-07T04:04:16.775Z,41.56
2022-09-07T04:05:18.809Z,41.57
2022-09-07T04:06:22.271Z,41.58
2022-09-07T04:07:24.167Z,41.61
2022-09-07T04:08:26.100Z,41.62
2022-09-07T04:09:27.900Z,41.65
2022-09-07T04:10:30.583Z,41.66
2022-09-07T04:11:32.481Z,41.67
2022-09-07T04:12:34.357Z,41.70
2022-09-07T04:13:36.232Z,41.70
2022-09-07T04:14:38.110Z,41.72
2022-09-07T04:15:39.988Z,41.73
2022-09-07T04:16:42.066Z,41.78
2022-09-07T04:17:43.994Z,41.77
2022-09-07T04:18:45.846Z,41.80
2022-09-07T04:19:47.716Z,41.82
2022-09-07T04:20:49.683Z,41.85
2022-09-07T04:21:51.685Z,41.86
2022-09-07T04:22:54.422Z,41.88
2022-09-07T04:23:56.384Z,41.91
2022-09-07T04:24:58.210Z,41.92
2022-09-07T04:26:00.042Z,41.93
2022-09-07T04:27:01.916Z,41.94
2022-09-07T04:28:03.773Z,41.95
2022-09-07T04:29:05.597Z,41.99
2022-09-07T04:30:07.735Z,41.98
2022-09-07T04:31:09.639Z,42.01
2022-09-07T04:32:15.641Z,42.02
2022-09-07T04:33:15.235Z,42.03
2022-09-07T04:34:17.085Z,42.05
2022-09-07T04:35:18.928Z,42.05
2022-09-07T04:36:21.163Z,42.04
2022-09-07T04:37:23.141Z,42.05
2022-09-07T04:38:25.092Z,42.07
2022-09-07T04:39:27.197Z,42.08
2022-09-07T04:40:30.504Z,42.08
2022-09-07T04:41:32.359Z,42.09
2022-09-07T04:42:34.249Z,42.10
2022-09-07T04:43:36.091Z,42.11
2022-09-07T04:44:37.949Z,42.11
2022-09-07T04:45:39.829Z,42.12
2022-09-07T04:46:41.813Z,42.13
2022-09-07T04:47:43.696Z,42.12
2022-09-07T04:48:45.540Z,42.15
2022-09-07T04:49:47.366Z,42.16
2022-09-07T04:50:49.318Z,42.18
2022-09-07T04:51:51.206Z,42.19
2022-09-07T04:52:53.191Z,42.21
2022-09-07T04:53:55.025Z,42.25
2022-09-07T04:54:56.913Z,42.27
2022-09-07T04:55:58.908Z,42.26
2022-09-07T04:57:00.854Z,42.25
2022-09-07T04:58:02.717Z,42.27
2022-09-07T04:59:04.560Z,42.29
2022-09-07T05:00:06.621Z,42.27
2022-09-07T05:01:08.513Z,42.28
2022-09-07T05:02:10.337Z,42.28
2022-09-07T05:03:12.174Z,42.29
2022-09-07T05:04:14.038Z,42.30
2022-09-07T05:05:15.871Z,42.31
2022-09-07T05:06:18.212Z,42.29
2022-09-07T05:07:20.051Z,42.29
2022-09-07T05:08:22.051Z,42.28
2022-09-07T05:09:23.933Z,42.26
2022-09-07T05:10:26.488Z,42.28
2022-09-07T05:11:29.686Z,42.28
2022-09-07T05:12:31.859Z,42.29
2022-09-07T05:13:33.814Z,42.30
2022-09-07T05:14:35.575Z,42.31
2022-09-07T05:15:37.416Z,42.33
2022-09-07T05:16:39.426Z,42.33
2022-09-07T05:17:41.302Z,42.32
2022-09-07T05:18:43.198Z,42.30
2022-09-07T05:19:45.029Z,42.29
2022-09-07T05:20:47.014Z,42.31
2022-09-07T05:21:48.906Z,42.30
2022-09-07T05:22:50.721Z,42.26
2022-09-07T05:23:52.659Z,42.28
2022-09-07T05:24:54.559Z,42.27
2022-09-07T05:25:56.416Z,42.28
2022-09-07T05:26:58.354Z,42.27
2022-09-07T05:28:00.199Z,42.18
2022-09-07T05:30:06.615Z,42.24
2022-09-07T05:32:12.591Z,42.22
2022-09-07T05:33:17.416Z,42.21
2022-09-07T05:34:34.543Z,42.21
2022-09-07T05:35:23.014Z,42.22
2022-09-07T05:36:25.169Z,42.18
2022-09-07T05:37:27.023Z,42.17
2022-09-07T05:38:28.941Z,42.17
2022-09-07T05:39:31.412Z,42.17
2022-09-07T05:40:36.179Z,42.17
2022-09-07T05:41:37.020Z,42.16
2022-09-07T05:42:38.868Z,42.15
2022-09-07T05:44:45.098Z,42.13
2022-09-07T05:45:47.553Z,42.12
2022-09-07T05:46:49.549Z,42.10
2022-09-07T05:47:51.367Z,42.12
2022-09-07T05:48:53.288Z,42.11
2022-09-07T05:49:57.249Z,42.11
2022-09-07T05:50:58.938Z,42.12
2022-09-07T05:52:00.782Z,42.12
2022-09-07T05:53:02.633Z,42.09
2022-09-07T05:54:04.465Z,42.12
2022-09-07T05:55:26.277Z,42.12
2022-09-07T05:56:10.659Z,42.12
2022-09-07T05:57:12.501Z,42.11
2022-09-07T05:58:14.338Z,42.10
2022-09-07T05:59:16.241Z,42.12
2022-09-07T06:00:18.917Z,42.09
2022-09-07T06:01:20.767Z,42.12
2022-09-07T06:02:22.681Z,42.11
2022-09-07T06:03:24.615Z,42.10
2022-09-07T06:04:26.492Z,42.11
2022-09-07T06:05:28.367Z,42.09
2022-09-07T06:06:30.528Z,42.09
2022-09-07T06:07:32.284Z,42.08
2022-09-07T06:08:34.125Z,42.09
2022-09-07T06:09:35.931Z,42.09
2022-09-07T06:10:45.704Z,42.05
2022-09-07T06:11:42.201Z,42.06
2022-09-07T06:12:45.656Z,42.05
2022-09-07T06:13:47.680Z,42.04
2022-09-07T06:14:49.504Z,42.04
2022-09-07T06:15:51.387Z,42.01
2022-09-07T06:16:53.591Z,42.02
2022-09-07T06:17:55.461Z,42.05
2022-09-07T06:18:57.313Z,42.04
2022-09-07T06:19:59.140Z,42.03
2022-09-07T06:21:01.137Z,42.04
2022-09-07T06:22:03.186Z,42.03
2022-09-07T06:23:05.013Z,42.02
2022-09-07T06:24:06.858Z,42.01
2022-09-07T06:25:08.693Z,42.00
2022-09-07T06:26:11.458Z,41.99
2022-09-07T06:27:13.291Z,41.94
2022-09-07T06:28:15.038Z,41.92
2022-09-07T06:29:16.870Z,41.91
2022-09-07T06:30:19.327Z,41.90
2022-09-07T06:31:21.366Z,41.87
2022-09-07T06:33:27.011Z,41.85
2022-09-07T06:34:28.882Z,41.84
2022-09-07T06:35:30.760Z,41.83
2022-09-07T06:36:32.772Z,41.82
2022-09-07T06:37:34.643Z,41.80
2022-09-07T06:38:36.536Z,41.81
2022-09-07T06:39:38.468Z,41.80
2022-09-07T06:40:40.421Z,41.78
2022-09-07T06:42:46.660Z,41.80
2022-09-07T06:43:48.536Z,41.80
2022-09-07T06:44:50.417Z,41.78
2022-09-07T06:45:52.507Z,41.77
2022-09-07T06:47:58.310Z,41.75
2022-09-07T06:49:00.158Z,41.74
2022-09-07T06:50:02.131Z,41.74
2022-09-07T06:51:04.002Z,41.73
2022-09-07T06:52:05.939Z,41.72
2022-09-07T06:55:15.165Z,41.70
2022-09-07T06:56:17.634Z,41.73
2022-09-07T06:57:19.647Z,41.73
2022-09-07T06:58:21.533Z,41.73
2022-09-07T06:59:23.414Z,41.73
2022-09-07T07:00:25.788Z,41.78
2022-09-07T07:01:27.989Z,41.78
2022-09-07T07:02:29.961Z,41.76
2022-09-07T07:03:31.894Z,41.79
2022-09-07T07:04:39.463Z,41.76
2022-09-07T07:05:37.561Z,41.80
2022-09-07T07:06:39.527Z,41.79
2022-09-07T07:07:41.424Z,41.78
2022-09-07T07:08:43.288Z,41.78
2022-09-07T07:09:45.174Z,41.76
2022-09-07T07:10:47.132Z,41.75
2022-09-07T07:11:49.004Z,41.75
2022-09-07T07:12:50.915Z,41.72
2022-09-07T07:13:52.780Z,41.69
2022-09-07T07:14:54.657Z,41.66
2022-09-07T07:15:56.571Z,41.65
2022-09-07T07:16:58.590Z,41.63
2022-09-07T07:18:09.627Z,41.60
2022-09-07T07:19:04.261Z,41.58
2022-09-07T07:20:06.217Z,41.56
2022-09-07T07:21:08.076Z,41.52
2022-09-07T07:22:29.575Z,41.53
2022-09-07T07:23:13.650Z,41.50
2022-09-07T07:24:15.517Z,41.48
2022-09-07T07:25:17.382Z,41.45
2022-09-07T07:26:19.565Z,41.41
2022-09-07T07:27:21.450Z,41.33
2022-09-07T07:29:29.955Z,41.25
2022-09-07T07:30:32.065Z,41.25
2022-09-07T07:31:33.960Z,41.18
2022-09-07T07:32:35.837Z,41.13
2022-09-07T07:33:40.616Z,41.11
2022-09-07T07:34:42.814Z,41.05
2022-09-07T07:35:44.653Z,41.01
2022-09-07T07:36:46.597Z,40.93
2022-09-07T07:37:48.421Z,40.84
2022-09-07T07:39:05.617Z,40.81
2022-09-07T07:42:03.546Z,40.71
2022-09-07T07:43:05.680Z,40.65
2022-09-07T07:44:09.357Z,40.62
2022-09-07T07:46:15.639Z,40.55
2022-09-07T07:47:17.971Z,40.55
2022-09-07T07:48:20.034Z,40.47
2022-09-07T07:49:22.151Z,40.43
2022-09-07T07:50:32.850Z,40.38
2022-09-07T07:51:28.807Z,40.39
2022-09-07T07:53:42.425Z,40.27
2022-09-07T07:54:37.986Z,40.24
2022-09-07T07:55:43.396Z,40.19
2022-09-07T07:56:43.538Z,40.13
2022-09-07T07:57:45.344Z,40.12
2022-09-07T07:58:47.171Z,40.13
2022-09-07T07:59:49.099Z,40.06
2022-09-07T08:00:55.496Z,40.01
2022-09-07T08:01:54.839Z,39.90
2022-09-07T08:02:56.701Z,39.84
2022-09-07T08:03:58.519Z,39.82
2022-09-07T08:05:00.386Z,39.75
2022-09-07T08:06:02.336Z,39.70
2022-09-07T08:07:09.715Z,39.65
2022-09-07T08:08:07.843Z,39.58
2022-09-07T08:09:09.666Z,39.57
2022-09-07T08:10:11.842Z,39.50
2022-09-07T08:11:13.688Z,39.44
2022-09-07T08:12:15.536Z,39.29
2022-09-07T08:13:17.369Z,39.29
2022-09-07T08:14:19.197Z,39.23
2022-09-07T08:15:21.085Z,39.13
2022-09-07T08:16:24.722Z,39.13
2022-09-07T08:17:26.570Z,39.11
2022-09-07T08:18:28.416Z,39.06
2022-09-07T08:19:30.261Z,39.07
2022-09-07T08:20:32.232Z,39.02
2022-09-07T08:21:34.059Z,38.98
2022-09-07T08:22:35.896Z,38.97
2022-09-07T08:23:37.715Z,38.88
2022-09-07T08:24:39.518Z,38.76
2022-09-07T08:25:41.371Z,38.77
2022-09-07T08:26:43.374Z,38.70
2022-09-07T08:27:45.217Z,38.56
2022-09-07T08:28:47.034Z,38.47
2022-09-07T08:29:48.844Z,38.38
2022-09-07T08:30:50.942Z,38.37
2022-09-07T08:31:52.781Z,38.32
2022-09-07T08:32:54.625Z,38.31
2022-09-07T08:34:14.511Z,38.35
2022-09-07T08:35:16.348Z,38.35
2022-09-07T08:36:18.951Z,38.35
2022-09-07T08:37:20.788Z,38.33
2022-09-07T08:38:22.622Z,38.29
2022-09-07T08:39:24.467Z,38.31
2022-09-07T08:40:28.115Z,38.28
2022-09-07T08:41:30.000Z,38.25
2022-09-07T08:42:31.829Z,38.19
2022-09-07T08:43:33.713Z,38.17
2022-09-07T08:44:35.663Z,38.11
2022-09-07T08:45:37.509Z,38.07
2022-09-07T08:46:39.601Z,38.07
2022-09-07T08:47:41.461Z,38.09
2022-09-07T08:48:43.254Z,38.09
2022-09-07T08:49:45.065Z,38.09
2022-09-07T08:50:46.976Z,38.08
2022-09-07T08:51:48.826Z,38.05
2022-09-07T08:52:50.619Z,38.01
2022-09-07T08:53:52.429Z,38.01
2022-09-07T08:54:54.235Z,37.99
2022-09-07T08:55:56.029Z,37.93
2022-09-07T08:58:01.584Z,37.86
2022-09-07T08:59:03.403Z,37.81
2022-09-07T09:00:05.319Z,37.82
2022-09-07T09:03:30.545Z,37.79
2022-09-07T09:04:19.044Z,37.80
2022-09-07T09:05:21.417Z,37.75
2022-09-07T09:06:24.504Z,37.69
2022-09-07T09:07:26.352Z,37.67
2022-09-07T09:08:28.146Z,37.76
2022-09-07T09:09:30.564Z,37.76
2022-09-07T09:10:32.670Z,37.65
2022-09-07T09:11:36.293Z,37.63
2022-09-07T09:12:38.138Z,37.63
2022-09-07T09:13:39.950Z,37.59
2022-09-07T09:14:41.855Z,37.50
2022-09-07T09:15:43.710Z,37.51
2022-09-07T09:16:45.563Z,37.49
2022-09-07T09:17:47.544Z,37.46
2022-09-07T09:18:49.342Z,37.43
2022-09-07T09:19:51.147Z,37.38
2022-09-07T09:20:53.208Z,37.31
2022-09-07T09:21:55.020Z,37.28
2022-09-07T09:22:56.970Z,37.29
2022-09-07T09:23:58.779Z,37.29
2022-09-07T09:25:00.822Z,37.31
2022-09-07T09:26:02.818Z,37.28
2022-09-07T09:27:04.625Z,37.26
2022-09-07T09:28:06.672Z,37.22
2022-09-07T09:29:08.466Z,37.20
2022-09-07T09:30:10.578Z,37.19
2022-09-07T09:31:12.439Z,37.16
2022-09-07T09:32:14.274Z,37.15
2022-09-07T09:33:16.179Z,37.13
2022-09-07T09:34:17.995Z,37.11
2022-09-07T09:35:19.787Z,37.12
2022-09-07T09:36:22.313Z,37.10
2022-09-07T09:37:24.169Z,37.07
2022-09-07T09:38:25.963Z,37.06
2022-09-07T09:39:27.803Z,37.05
2022-09-07T09:40:30.334Z,37.04
2022-09-07T09:41:32.197Z,37.03
2022-09-07T09:42:34.033Z,37.01
2022-09-07T09:43:35.884Z,37.01
2022-09-07T09:44:38.010Z,37.01
2022-09-07T09:46:44.269Z,36.91
2022-09-07T09:47:46.407Z,36.89
2022-09-07T09:48:48.258Z,36.88
2022-09-07T09:49:50.055Z,36.84
2022-09-07T09:52:59.469Z,36.82
2022-09-07T09:54:01.330Z,36.75
2022-09-07T09:55:33.707Z,36.75
2022-09-07T09:56:07.064Z,36.74
2022-09-07T09:57:08.864Z,36.75
2022-09-07T10:00:27.926Z,36.74
2022-09-07T10:01:24.005Z,36.73
2022-09-07T10:04:32.974Z,36.73
2022-09-07T10:05:34.768Z,36.92
2022-09-07T10:06:36.673Z,36.71
2022-09-07T10:07:38.476Z,36.66
2022-09-07T10:08:40.294Z,36.64
2022-09-07T10:09:42.159Z,36.64
2022-09-07T10:10:44.052Z,36.63
2022-09-07T10:12:49.525Z,36.56
2022-09-07T10:13:51.335Z,36.55
2022-09-07T10:14:53.176Z,36.55
2022-09-07T10:15:55.063Z,36.58
2022-09-07T10:16:57.029Z,36.54
2022-09-07T10:17:58.828Z,36.48
2022-09-07T10:19:00.939Z,36.47
2022-09-07T10:20:02.916Z,36.48
2022-09-07T10:21:04.718Z,36.49
2022-09-07T10:22:06.503Z,36.49
2022-09-07T10:23:08.321Z,36.45
2022-09-07T10:24:10.129Z,36.36
2022-09-07T10:25:11.910Z,36.38
2022-09-07T10:26:14.002Z,36.34
2022-09-07T10:27:15.809Z,36.34
2022-09-07T10:28:17.607Z,36.36
2022-09-07T10:29:19.414Z,36.37
2022-09-07T10:30:23.105Z,36.37
2022-09-07T10:31:24.969Z,36.30
2022-09-07T10:32:26.806Z,36.31
2022-09-07T10:33:28.668Z,36.31
2022-09-07T10:34:30.461Z,36.33
2022-09-07T10:35:32.377Z,36.32
2022-09-07T10:36:35.016Z,36.31
2022-09-07T10:37:36.835Z,36.28
2022-09-07T10:38:38.635Z,36.27
2022-09-07T10:39:40.492Z,36.26
2022-09-07T10:40:42.392Z,36.25
2022-09-07T10:41:44.202Z,36.22
2022-09-07T10:43:50.195Z,36.20
2022-09-07T10:44:51.978Z,36.19
2022-09-07T10:45:53.874Z,36.18
2022-09-07T10:46:57.333Z,36.19
2022-09-07T10:47:59.346Z,36.18
2022-09-07T10:49:01.166Z,36.16
2022-09-07T10:51:13.757Z,36.14
2022-09-07T10:52:10.353Z,36.11
2022-09-07T10:53:37.120Z,36.11
2022-09-07T10:54:31.501Z,36.12
2022-09-07T10:55:19.400Z,36.10
2022-09-07T10:56:21.559Z,36.04
2022-09-07T10:57:23.355Z,36.02
2022-09-07T10:59:01.517Z,36.01
2022-09-07T11:00:07.568Z,36.00
2022-09-07T11:00:32.739Z,36.00
2022-09-07T11:01:34.690Z,36.00
2022-09-07T11:03:58.507Z,36.04
2022-09-07T11:05:00.388Z,36.01
2022-09-07T11:06:02.318Z,36.01
2022-09-07T11:07:04.205Z,36.02
2022-09-07T11:08:06.050Z,36.02
2022-09-07T11:09:16.723Z,35.99
2022-09-07T11:10:11.880Z,35.99
2022-09-07T11:12:35.728Z,35.96
2022-09-07T11:13:50.244Z,35.97
2022-09-07T11:14:41.207Z,35.95
2022-09-07T11:15:43.067Z,35.95
2022-09-07T11:16:52.296Z,35.97
2022-09-07T11:17:52.736Z,35.94
2022-09-07T11:18:52.423Z,35.86
2022-09-07T11:19:54.210Z,35.82
2022-09-07T11:20:56.135Z,35.80
2022-09-07T11:21:58.066Z,35.81
2022-09-07T11:22:59.947Z,35.76
2022-09-07T11:24:01.767Z,35.74
2022-09-07T11:26:07.342Z,35.70
2022-09-07T11:27:09.181Z,35.67
2022-09-07T11:28:11.145Z,35.58
2022-09-07T11:30:17.621Z,35.54
2022-09-07T11:31:19.505Z,35.51
2022-09-07T11:32:21.362Z,35.44
2022-09-07T11:33:23.224Z,35.42
2022-09-07T11:34:25.258Z,35.41
2022-09-07T11:35:27.221Z,35.42
2022-09-07T11:36:29.549Z,35.42
2022-09-07T11:37:31.391Z,35.40
2022-09-07T11:38:33.523Z,35.40
2022-09-07T11:39:35.443Z,35.39
2022-09-07T11:40:37.451Z,35.38
2022-09-07T11:41:39.276Z,35.39
2022-09-07T11:42:44.438Z,35.38
2022-09-07T11:43:44.827Z,35.37
2022-09-07T11:44:46.640Z,35.37
2022-09-07T11:45:48.553Z,35.32
2022-09-07T11:46:50.450Z,35.31
2022-09-07T11:47:52.278Z,35.31
2022-09-07T11:48:54.142Z,35.34
2022-09-07T11:49:59.117Z,35.30
2022-09-07T11:50:59.811Z,35.27
2022-09-07T11:52:05.056Z,35.24
2022-09-07T11:53:05.268Z,35.21
2022-09-07T11:54:07.180Z,35.19
2022-09-07T11:55:09.040Z,35.21
2022-09-07T11:56:11.281Z,35.22
2022-09-07T11:57:13.109Z,35.19
2022-09-07T11:58:14.934Z,35.17
2022-09-07T11:59:16.793Z,35.16
2022-09-07T12:00:19.315Z,35.14
2022-09-07T12:01:21.150Z,35.11
2022-09-07T12:02:32.332Z,35.10
2022-09-07T12:03:26.663Z,35.09
2022-09-07T12:04:28.604Z,35.04
2022-09-07T12:05:30.387Z,35.03
2022-09-07T12:06:32.317Z,34.98
2022-09-07T12:07:34.719Z,34.99
2022-09-07T12:08:36.571Z,35.00
2022-09-07T12:09:38.475Z,34.93
2022-09-07T12:10:40.377Z,34.90
2022-09-07T12:11:42.236Z,34.88
2022-09-07T12:12:44.051Z,34.91
2022-09-07T12:13:45.872Z,34.87
2022-09-07T12:14:47.720Z,34.85
2022-09-07T12:15:49.588Z,34.85
2022-09-07T12:16:51.675Z,34.84
2022-09-07T12:17:53.496Z,34.79
2022-09-07T12:18:55.348Z,34.79
2022-09-07T12:19:57.202Z,34.79
2022-09-07T12:20:59.219Z,34.73
2022-09-07T12:22:01.049Z,34.74
2022-09-07T12:23:05.133Z,34.72
2022-09-07T12:24:06.505Z,34.69
2022-09-07T12:25:08.417Z,34.64
2022-09-07T12:26:12.045Z,34.63
2022-09-07T12:27:13.905Z,34.58
2022-09-07T12:28:19.861Z,34.56
2022-09-07T12:29:19.391Z,34.53
2022-09-07T12:30:22.220Z,34.53
2022-09-07T12:31:27.300Z,34.53
2022-09-07T12:33:31.431Z,34.55
2022-09-07T12:34:33.272Z,34.56
2022-09-07T12:35:35.151Z,34.56
2022-09-07T12:36:37.093Z,34.53
2022-09-07T12:37:38.924Z,34.55
2022-09-07T12:38:40.751Z,34.54
2022-09-07T12:39:42.651Z,34.51
2022-09-07T12:40:44.709Z,34.48
2022-09-07T12:41:47.436Z,34.46
2022-09-07T12:42:49.640Z,34.46
2022-09-07T12:43:51.465Z,34.46
2022-09-07T12:44:53.293Z,34.42
2022-09-07T12:45:55.210Z,34.45
2022-09-07T12:46:57.182Z,34.41
2022-09-07T12:47:59.030Z,34.40
2022-09-07T12:49:00.826Z,34.38
2022-09-07T12:50:03.103Z,34.38
2022-09-07T12:51:05.084Z,34.36
2022-09-07T12:52:15.309Z,34.35
2022-09-07T12:53:11.919Z,34.34
2022-09-07T12:54:13.735Z,34.32
2022-09-07T12:55:31.209Z,34.32
2022-09-07T12:56:19.668Z,34.57
2022-09-07T12:57:36.721Z,34.57
2022-09-07T12:58:25.103Z,34.28
2022-09-07T12:59:26.951Z,34.29
2022-09-07T13:00:29.386Z,34.27
2022-09-07T13:01:31.304Z,34.28
2022-09-07T13:02:33.233Z,34.26
2022-09-07T13:03:51.800Z,34.26
2022-09-07T13:04:38.704Z,34.24
2022-09-07T13:05:40.533Z,34.26
2022-09-07T13:07:46.335Z,34.22
2022-09-07T13:08:48.149Z,34.24
2022-09-07T13:09:49.995Z,34.25
2022-09-07T13:10:52.221Z,34.27
2022-09-07T13:11:54.142Z,34.25
2022-09-07T13:12:57.786Z,34.21
2022-09-07T13:14:04.423Z,34.21
2022-09-07T13:15:03.202Z,34.21
2022-09-07T13:16:05.220Z,34.20
2022-09-07T13:17:22.337Z,34.22
2022-09-07T13:18:10.619Z,34.25
2022-09-07T13:19:12.429Z,34.27
2022-09-07T13:20:16.036Z,34.28
2022-09-07T13:21:17.839Z,34.30
2022-09-07T13:22:19.667Z,34.32
2022-09-07T13:23:21.468Z,34.37
2022-09-07T13:25:26.976Z,34.40
2022-09-07T13:26:29.082Z,34.43
2022-09-07T13:27:31.005Z,34.44
2022-09-07T13:28:32.811Z,34.46
2022-09-07T13:29:34.605Z,34.47
2022-09-07T13:30:36.548Z,34.47
2022-09-07T13:31:38.515Z,34.44
2022-09-07T13:33:43.982Z,34.46
2022-09-07T13:34:45.751Z,34.47
2022-09-07T13:35:47.551Z,34.48
2022-09-07T13:36:49.464Z,34.50
2022-09-07T13:37:52.646Z,34.52
2022-09-07T13:38:54.475Z,34.51
2022-09-07T13:39:56.343Z,34.51
2022-09-07T13:40:58.174Z,34.51
2022-09-07T13:41:59.878Z,34.48
2022-09-07T13:43:01.818Z,34.48
2022-09-07T13:44:03.611Z,34.48
2022-09-07T13:45:05.417Z,34.49
2022-09-07T13:46:07.777Z,34.52
2022-09-07T13:47:09.629Z,34.54
2022-09-07T13:48:11.498Z,34.56
2022-09-07T13:49:13.271Z,34.54
2022-09-07T13:50:15.681Z,34.55
2022-09-07T13:51:17.481Z,34.57
2022-09-07T13:52:19.290Z,34.55
2022-09-07T13:53:21.117Z,34.55
2022-09-07T13:54:22.914Z,34.58
2022-09-07T13:55:25.992Z,34.58
2022-09-07T13:56:28.950Z,34.58